createdAt,value
2022-12-17T00:00:03.134Z,101786.50
2022-12-17T00:02:48.374Z,101794.13
2022-12-17T00:05:33.106Z,101793.59
2022-12-17T00:08:18.966Z,101793.41
2022-12-17T00:11:04.123Z,101801.91
2022-12-17T00:13:49.044Z,101814.19
2022-12-17T00:16:35.148Z,101812.69
2022-12-17T00:19:20.107Z,101816.03
2022-12-17T00:22:04.964Z,101808.56
2022-12-17T00:24:49.666Z,101821.91
2022-12-17T00:27:34.655Z,101816.66
2022-12-17T00:30:19.601Z,101821.75
2022-12-17T00:33:04.341Z,101823.31
2022-12-17T00:35:49.367Z,101830.84
2022-12-17T00:38:35.540Z,101835.41
2022-12-17T00:41:20.249Z,101833.47
2022-12-17T00:44:04.930Z,101833.84
2022-12-17T00:46:50.787Z,101840.31
2022-12-17T00:49:37.259Z,101841.53
2022-12-17T00:52:22.325Z,101845.16
2022-12-17T00:55:07.330Z,101848.81
2022-12-17T00:57:59.742Z,101842.06
2022-12-17T01:00:44.823Z,101847.63
2022-12-17T01:03:31.642Z,101850.25
2022-12-17T01:06:21.042Z,101856.44
2022-12-17T01:09:05.710Z,101863.50
2022-12-17T01:11:50.650Z,101863.69
2022-12-17T01:14:37.113Z,101857.38
2022-12-17T01:17:22.209Z,101869.22
2022-12-17T01:20:07.196Z,101878.44
2022-12-17T01:22:52.103Z,101880.59
2022-12-17T01:25:36.996Z,101882.81
2022-12-17T01:28:22.171Z,101882.84
2022-12-17T01:31:07.172Z,101885.34
2022-12-17T01:33:51.916Z,101891.16
2022-12-17T01:36:36.787Z,101895.72
2022-12-17T01:39:22.134Z,101890.13
2022-12-17T01:42:07.297Z,101895.91
2022-12-17T01:45:13.755Z,101897.88
2022-12-17T01:48:07.709Z,101903.16
2022-12-17T01:51:01.948Z,101908.06
2022-12-17T01:53:53.197Z,101908.13
2022-12-17T01:56:38.147Z,101910.50
2022-12-17T01:59:25.493Z,101907.88
2022-12-17T02:02:10.800Z,101899.72
2022-12-17T02:04:56.618Z,101898.81
2022-12-17T02:08:09.848Z,101895.16
2022-12-17T02:11:23.644Z,101901.69
2022-12-17T02:14:35.755Z,101895.16
2022-12-17T02:17:26.690Z,101895.91
2022-12-17T02:20:33.385Z,101891.63
2022-12-17T02:23:40.654Z,101894.97
2022-12-17T02:26:32.060Z,101889.59
2022-12-17T02:29:19.204Z,101892.06
2022-12-17T02:32:06.378Z,101892.56
2022-12-17T02:35:11.191Z,101888.31
2022-12-17T02:37:55.785Z,101895.66
2022-12-17T02:40:42.723Z,101886.53
2022-12-17T02:43:29.078Z,101884.66
2022-12-17T02:46:14.770Z,101893.09
2022-12-17T02:49:00.026Z,101888.50
2022-12-17T02:51:45.069Z,101885.16
2022-12-17T02:54:29.961Z,101895.75
2022-12-17T02:57:14.524Z,101897.19
2022-12-17T02:59:59.512Z,101896.22
2022-12-17T03:02:44.706Z,101897.19
2022-12-17T03:05:44.904Z,101902.97
2022-12-17T03:08:31.284Z,101898.31
2022-12-17T03:11:15.894Z,101902.53
2022-12-17T03:14:00.882Z,101908.81
2022-12-17T03:16:46.150Z,101912.16
2022-12-17T03:19:31.031Z,101909.63
2022-12-17T03:22:15.928Z,101917.03
2022-12-17T03:25:00.704Z,101922.66
2022-12-17T03:27:45.729Z,101915.72
2022-12-17T03:30:35.562Z,101922.88
2022-12-17T03:33:21.324Z,101924.25
2022-12-17T03:36:06.128Z,101919.66
2022-12-17T03:38:50.840Z,101919.75
2022-12-17T03:41:35.909Z,101935.59
2022-12-17T03:44:20.596Z,101930.78
2022-12-17T03:47:05.553Z,101928.06
2022-12-17T03:49:50.502Z,101925.50
2022-12-17T03:52:35.180Z,101922.97
2022-12-17T03:55:20.203Z,101923.66
2022-12-17T03:58:21.636Z,101929.53
2022-12-17T04:01:06.419Z,101929.34
2022-12-17T04:03:51.128Z,101926.81
2022-12-17T04:06:35.875Z,101929.34
2022-12-17T04:09:20.710Z,101935.69
2022-12-17T04:12:05.388Z,101934.00
2022-12-17T04:14:50.290Z,101933.56
2022-12-17T04:17:35.166Z,101932.69
2022-12-17T04:20:19.940Z,101930.63
2022-12-17T04:23:05.165Z,101935.13
2022-12-17T04:25:50.297Z,101930.34
2022-12-17T04:28:35.009Z,101938.84
2022-12-17T04:31:19.786Z,101936.88
2022-12-17T04:34:05.069Z,101934.13
2022-12-17T04:36:49.927Z,101935.81
2022-12-17T04:39:34.625Z,101942.09
2022-12-17T04:42:19.334Z,101940.63
2022-12-17T04:45:04.272Z,101941.28
2022-12-17T04:47:49.130Z,101947.75
2022-12-17T04:50:34.370Z,101943.53
2022-12-17T04:53:21.220Z,101943.94
2022-12-17T04:56:06.765Z,101945.88
2022-12-17T04:58:52.056Z,101946.56
2022-12-17T05:01:37.176Z,101949.81
2022-12-17T05:04:22.475Z,101947.47
2022-12-17T05:07:07.280Z,101962.53
2022-12-17T05:09:52.358Z,101959.00
2022-12-17T05:12:37.159Z,101951.56
2022-12-17T05:15:22.320Z,101957.25
2022-12-17T05:18:07.079Z,101954.47
2022-12-17T05:20:51.816Z,101960.28
2022-12-17T05:23:37.230Z,101965.34
2022-12-17T05:26:26.006Z,101968.19
2022-12-17T05:29:15.599Z,101967.31
2022-12-17T05:32:01.107Z,101974.63
2022-12-17T05:34:45.872Z,101978.75
2022-12-17T05:37:30.500Z,101981.97
2022-12-17T05:40:15.209Z,101983.03
2022-12-17T05:42:59.918Z,101983.03
2022-12-17T05:45:44.876Z,101979.59
2022-12-17T05:48:29.574Z,101983.72
2022-12-17T05:51:14.310Z,101991.69
2022-12-17T05:53:59.024Z,101990.63
2022-12-17T05:56:43.722Z,101982.91
2022-12-17T05:59:28.362Z,101980.25
2022-12-17T06:02:13.196Z,101985.53
2022-12-17T06:05:02.075Z,101994.16
2022-12-17T06:07:47.551Z,101998.44
2022-12-17T06:10:32.868Z,101999.50
2022-12-17T06:13:17.580Z,101999.91
2022-12-17T06:16:06.903Z,102002.25
2022-12-17T06:18:52.758Z,102007.25
2022-12-17T06:21:38.037Z,102018.41
2022-12-17T06:24:23.219Z,102011.34
2022-12-17T06:27:08.540Z,102013.47
2022-12-17T06:29:53.405Z,102015.16
2022-12-17T06:32:38.238Z,102018.00
2022-12-17T06:35:23.390Z,102015.56
2022-12-17T06:38:20.224Z,102019.97
2022-12-17T06:41:05.119Z,102024.06
2022-12-17T06:43:50.220Z,102024.94
2022-12-17T06:46:34.974Z,102021.31
2022-12-17T06:49:19.821Z,102023.84
2022-12-17T06:52:04.505Z,102021.97
2022-12-17T06:54:49.225Z,102020.09
2022-12-17T06:57:37.771Z,102032.53
2022-12-17T07:00:26.253Z,102035.94
2022-12-17T07:03:15.434Z,102039.56
2022-12-17T07:06:01.174Z,102031.84
2022-12-17T07:08:46.336Z,102040.22
2022-12-17T07:11:31.029Z,102048.34
2022-12-17T07:14:15.911Z,102045.50
2022-12-17T07:17:00.555Z,102052.31
2022-12-17T07:19:45.527Z,102050.78
2022-12-17T07:22:30.381Z,102053.44
2022-12-17T07:25:15.175Z,102056.94
2022-12-17T07:28:00.423Z,102059.41
2022-12-17T07:30:45.218Z,102059.19
2022-12-17T07:33:29.885Z,102066.81
2022-12-17T07:36:14.596Z,102070.09
2022-12-17T07:38:59.842Z,102073.84
2022-12-17T07:41:44.770Z,102083.34
2022-12-17T07:44:29.482Z,102083.22
2022-12-17T07:47:14.680Z,102081.78
2022-12-17T07:49:59.574Z,102088.50
2022-12-17T07:52:44.556Z,102093.91
2022-12-17T07:55:29.185Z,102086.75
2022-12-17T07:58:19.452Z,102093.19
2022-12-17T08:01:04.725Z,102095.16
2022-12-17T08:03:50.046Z,102091.84
2022-12-17T08:06:35.150Z,102104.19
2022-12-17T08:09:20.296Z,102113.47
2022-12-17T08:12:05.037Z,102107.88
2022-12-17T08:14:49.719Z,102117.03
2022-12-17T08:17:34.775Z,102112.38
2022-12-17T08:20:19.601Z,102126.94
2022-12-17T08:23:04.925Z,102125.16
2022-12-17T08:25:49.863Z,102121.81
2022-12-17T08:28:50.189Z,102129.19
2022-12-17T08:31:36.698Z,102132.81
2022-12-17T08:34:22.052Z,102140.06
2022-12-17T08:37:06.882Z,102141.25
2022-12-17T08:39:51.850Z,102138.94
2022-12-17T08:42:36.700Z,102142.00
2022-12-17T08:45:21.935Z,102147.03
2022-12-17T08:48:06.628Z,102146.34
2022-12-17T08:50:51.369Z,102145.28
2022-12-17T08:53:36.827Z,102152.25
2022-12-17T08:56:22.154Z,102156.66
2022-12-17T08:59:06.784Z,102161.16
2022-12-17T09:01:52.009Z,102169.09
2022-12-17T09:04:37.274Z,102155.88
2022-12-17T09:07:22.286Z,102160.47
2022-12-17T09:10:07.064Z,102164.88
2022-12-17T09:12:51.959Z,102168.63
2022-12-17T09:15:36.777Z,102161.97
2022-12-17T09:18:21.566Z,102167.34
2022-12-17T09:21:14.146Z,102163.44
2022-12-17T09:23:59.688Z,102166.38
2022-12-17T09:26:44.439Z,102170.00
2022-12-17T09:29:29.307Z,102170.19
2022-12-17T09:32:13.999Z,102183.50
2022-12-17T09:34:58.656Z,102180.22
2022-12-17T09:37:43.763Z,102177.06
2022-12-17T09:40:37.048Z,102168.25
2022-12-17T09:43:35.814Z,102170.56
2022-12-17T09:46:36.354Z,102169.59
2022-12-17T09:49:37.382Z,102166.28
2022-12-17T09:52:38.309Z,102170.19
2022-12-17T09:55:34.344Z,102166.84
2022-12-17T09:58:21.147Z,102178.22
2022-12-17T10:01:07.873Z,102178.66
2022-12-17T10:03:54.931Z,102187.75
2022-12-17T10:06:45.298Z,102184.25
2022-12-17T10:09:33.256Z,102180.31
2022-12-17T10:12:30.027Z,102180.09
2022-12-17T10:15:15.068Z,102181.16
2022-12-17T10:18:00.287Z,102187.31
2022-12-17T10:20:52.249Z,102184.00
2022-12-17T10:23:42.465Z,102189.28
2022-12-17T10:26:28.821Z,102196.94
2022-12-17T10:29:27.743Z,102190.06
2022-12-17T10:32:14.616Z,102188.16
2022-12-17T10:35:05.646Z,102195.31
2022-12-17T10:37:53.492Z,102188.66
2022-12-17T10:40:44.932Z,102196.28
2022-12-17T10:43:51.342Z,102198.03
2022-12-17T10:46:47.960Z,102204.75
2022-12-17T10:49:34.819Z,102199.06
2022-12-17T10:52:23.012Z,102204.44
2022-12-17T10:55:20.537Z,102204.38
2022-12-17T10:58:08.204Z,102199.63
2022-12-17T11:00:56.950Z,102196.56
2022-12-17T11:04:11.995Z,102188.19
2022-12-17T11:07:06.373Z,102186.44
2022-12-17T11:10:09.748Z,102185.72
2022-12-17T11:12:57.016Z,102186.94
2022-12-17T11:15:50.520Z,102182.91
2022-12-17T11:18:46.918Z,102184.16
2022-12-17T11:21:44.852Z,102187.84
2022-12-17T11:24:37.563Z,102170.94
2022-12-17T11:27:26.315Z,102179.75
2022-12-17T11:30:12.096Z,102185.28
2022-12-17T11:33:17.669Z,102178.47
2022-12-17T11:36:15.697Z,102183.06
2022-12-17T11:39:07.660Z,102182.88
2022-12-17T11:42:11.279Z,102181.47
2022-12-17T11:45:05.186Z,102173.75
2022-12-17T11:47:57.534Z,102181.13
2022-12-17T11:50:57.068Z,102183.88
2022-12-17T11:54:05.193Z,102181.13
2022-12-17T11:57:02.103Z,102187.78
2022-12-17T11:59:55.136Z,102181.47
2022-12-17T12:03:07.192Z,102183.38
2022-12-17T12:06:15.896Z,102180.22
2022-12-17T12:09:22.101Z,102176.63
2022-12-17T12:12:37.035Z,102178.44
2022-12-17T12:15:26.651Z,102179.41
2022-12-17T12:18:22.772Z,102178.44
2022-12-17T12:21:28.576Z,102183.81
2022-12-17T12:24:45.351Z,102182.13
2022-12-17T12:27:49.620Z,102179.69
2022-12-17T12:30:39.571Z,102183.72
2022-12-17T12:33:43.334Z,102188.22
2022-12-17T12:36:31.158Z,102185.13
2022-12-17T12:39:16.850Z,102189.69
2022-12-17T12:42:34.313Z,102183.50
2022-12-17T12:45:25.566Z,102185.03
2022-12-17T12:48:25.148Z,102186.34
2022-12-17T12:51:33.617Z,102200.78
2022-12-17T12:54:21.338Z,102192.16
2022-12-17T12:57:06.205Z,102195.34
2022-12-17T12:59:53.686Z,102189.34
2022-12-17T13:02:38.830Z,102191.19
2022-12-17T13:05:33.841Z,102190.72
2022-12-17T13:08:15.723Z,102187.03
2022-12-17T13:10:42.307Z,102190.56
2022-12-17T13:13:18.018Z,102191.44
2022-12-17T13:15:48.877Z,102193.03
2022-12-17T13:18:24.547Z,102194.88
2022-12-17T13:21:00.344Z,102193.53
2022-12-17T13:23:33.544Z,102188.41
2022-12-17T13:26:15.235Z,102194.59
2022-12-17T13:28:42.860Z,102188.75
2022-12-17T13:31:25.226Z,102195.13
2022-12-17T13:34:06.798Z,102196.41
2022-12-17T13:36:46.330Z,102186.28
2022-12-17T13:39:51.765Z,102198.59
2022-12-17T13:42:30.284Z,102191.00
2022-12-17T13:44:57.952Z,102193.25
2022-12-17T13:47:27.790Z,102194.19
2022-12-17T13:50:32.665Z,102189.56
2022-12-17T13:52:44.004Z,102202.34
2022-12-17T13:55:18.478Z,102194.44
2022-12-17T13:57:46.349Z,102202.16
2022-12-17T14:00:22.423Z,102202.16
2022-12-17T14:02:48.971Z,102198.75
2022-12-17T14:05:41.775Z,102213.38
2022-12-17T14:08:08.976Z,102212.50
2022-12-17T14:10:35.504Z,102212.16
2022-12-17T14:13:10.489Z,102218.94
2022-12-17T14:15:37.401Z,102223.53
2022-12-17T14:18:04.654Z,102223.69
2022-12-17T14:20:35.316Z,102223.81
2022-12-17T14:23:15.870Z,102231.03
2022-12-17T14:25:44.201Z,102225.69
2022-12-17T14:28:24.416Z,102233.09
2022-12-17T14:31:25.157Z,102232.91
2022-12-17T14:33:40.771Z,102230.31
2022-12-17T14:36:16.319Z,102230.13
2022-12-17T14:39:11.298Z,102226.50
2022-12-17T14:41:57.276Z,102236.34
2022-12-17T14:44:28.716Z,102239.63
2022-12-17T14:47:13.073Z,102235.13
2022-12-17T14:49:55.609Z,102240.75
2022-12-17T14:52:39.958Z,102238.84
2022-12-17T14:55:39.428Z,102240.59
2022-12-17T14:58:11.761Z,102237.22
2022-12-17T15:00:39.966Z,102242.63
2022-12-17T15:03:11.825Z,102244.13
2022-12-17T15:05:38.315Z,102246.91
2022-12-17T15:08:05.427Z,102255.91
2022-12-17T15:10:31.728Z,102251.59
2022-12-17T15:12:58.093Z,102251.84
2022-12-17T15:15:24.402Z,102252.75
2022-12-17T15:17:50.688Z,102261.19
2022-12-17T15:20:20.104Z,102253.81
2022-12-17T15:22:47.704Z,102256.34
2022-12-17T15:25:16.259Z,102253.34
2022-12-17T15:27:42.600Z,102255.78
2022-12-17T15:30:17.870Z,102255.06
2022-12-17T15:32:45.135Z,102261.75
2022-12-17T15:35:13.075Z,102260.38
2022-12-17T15:37:39.782Z,102263.22
2022-12-17T15:40:06.993Z,102264.50
2022-12-17T15:42:52.096Z,102274.72
2022-12-17T15:45:18.423Z,102269.22
2022-12-17T15:47:44.756Z,102270.03
2022-12-17T15:50:11.195Z,102271.53
2022-12-17T15:52:37.557Z,102264.94
2022-12-17T15:55:04.142Z,102263.06
2022-12-17T15:57:30.566Z,102271.22
2022-12-17T15:59:56.875Z,102270.47
2022-12-17T16:02:23.360Z,102275.75
2022-12-17T16:04:49.854Z,102280.78
2022-12-17T16:07:16.450Z,102275.25
2022-12-17T16:09:42.745Z,102278.00
2022-12-17T16:12:09.107Z,102284.34
2022-12-17T16:14:35.537Z,102292.44
2022-12-17T16:17:01.927Z,102281.53
2022-12-17T16:19:28.298Z,102289.78
2022-12-17T16:21:54.584Z,102283.97
2022-12-17T16:24:21.060Z,102287.13
2022-12-17T16:26:47.392Z,102288.13
2022-12-17T16:29:13.736Z,102287.13
2022-12-17T16:31:40.312Z,102294.59
2022-12-17T16:34:10.850Z,102297.72
2022-12-17T16:36:37.272Z,102302.22
2022-12-17T16:39:04.815Z,102301.84
2022-12-17T16:41:31.974Z,102303.63
2022-12-17T16:43:58.416Z,102299.03
2022-12-17T16:46:32.165Z,102294.97
2022-12-17T16:49:04.018Z,102305.78
2022-12-17T16:51:30.775Z,102296.09
2022-12-17T16:53:58.151Z,102300.81
2022-12-17T16:56:27.608Z,102300.50
2022-12-17T16:58:55.429Z,102304.53
2022-12-17T17:01:24.901Z,102301.19
2022-12-17T17:03:51.388Z,102306.59
2022-12-17T17:06:19.451Z,102297.19
2022-12-17T17:08:45.939Z,102302.88
2022-12-17T17:11:15.429Z,102299.75
2022-12-17T17:13:42.408Z,102304.66
2022-12-17T17:16:10.527Z,102297.69
2022-12-17T17:18:38.243Z,102311.22
2022-12-17T17:21:20.001Z,102308.56
2022-12-17T17:23:47.954Z,102321.13
2022-12-17T17:26:15.011Z,102326.63
2022-12-17T17:28:41.974Z,102329.53
2022-12-17T17:31:11.967Z,102331.47
2022-12-17T17:33:43.013Z,102332.47
2022-12-17T17:36:11.824Z,102330.72
2022-12-17T17:38:40.510Z,102335.63
2022-12-17T17:41:10.085Z,102340.19
2022-12-17T17:43:36.515Z,102335.59
2022-12-17T17:46:12.277Z,102338.13
2022-12-17T17:48:39.012Z,102341.66
2022-12-17T17:51:15.222Z,102345.38
2022-12-17T17:53:42.388Z,102345.97
2022-12-17T17:56:14.989Z,102346.78
2022-12-17T17:58:50.998Z,102357.44
2022-12-17T18:01:20.671Z,102364.06
2022-12-17T18:03:47.153Z,102360.78
2022-12-17T18:06:14.055Z,102361.25
2022-12-17T18:08:41.497Z,102352.59
2022-12-17T18:11:10.281Z,102355.75
2022-12-17T18:13:54.921Z,102357.75
2022-12-17T18:16:22.799Z,102360.31
2022-12-17T18:18:50.090Z,102369.81
2022-12-17T18:21:19.163Z,102368.03
2022-12-17T18:23:46.758Z,102373.31
2022-12-17T18:26:15.065Z,102374.63
2022-12-17T18:28:42.682Z,102375.56
2022-12-17T18:31:24.505Z,102374.84
2022-12-17T18:33:54.172Z,102372.31
2022-12-17T18:36:23.617Z,102375.09
2022-12-17T18:39:01.227Z,102378.91
2022-12-17T18:41:47.239Z,102383.16
2022-12-17T18:44:14.186Z,102389.56
2022-12-17T18:46:40.557Z,102386.94
2022-12-17T18:49:09.613Z,102394.56
2022-12-17T18:51:37.382Z,102396.88
2022-12-17T18:54:08.507Z,102405.47
2022-12-17T18:57:00.162Z,102403.00
2022-12-17T18:59:28.712Z,102405.53
2022-12-17T19:01:56.491Z,102407.75
2022-12-17T19:04:23.979Z,102416.84
2022-12-17T19:06:53.288Z,102417.75
2022-12-17T19:09:29.005Z,102424.59
2022-12-17T19:11:56.127Z,102422.38
2022-12-17T19:14:23.365Z,102417.50
2022-12-17T19:16:51.460Z,102412.88
2022-12-17T19:19:18.931Z,102417.63
2022-12-17T19:21:45.762Z,102426.91
2022-12-17T19:24:17.580Z,102429.16
2022-12-17T19:26:44.820Z,102439.41
2022-12-17T19:29:13.329Z,102443.19
2022-12-17T19:31:40.140Z,102439.19
2022-12-17T19:34:09.538Z,102435.47
2022-12-17T19:36:37.335Z,102436.00
2022-12-17T19:39:06.226Z,102444.50
2022-12-17T19:41:33.171Z,102450.72
2022-12-17T19:44:05.550Z,102451.81
2022-12-17T19:46:33.607Z,102448.50
2022-12-17T19:49:00.138Z,102449.50
2022-12-17T19:51:29.043Z,102454.88
2022-12-17T19:53:56.105Z,102456.22
2022-12-17T19:56:25.992Z,102461.63
2022-12-17T19:58:55.306Z,102458.44
2022-12-17T20:01:24.688Z,102461.09
2022-12-17T20:03:52.243Z,102456.91
2022-12-17T20:06:20.399Z,102451.81
2022-12-17T20:08:46.708Z,102450.69
2022-12-17T20:11:33.280Z,102450.34
2022-12-17T20:14:17.958Z,102451.00
2022-12-17T20:16:46.707Z,102456.19
2022-12-17T20:19:24.948Z,102458.31
2022-12-17T20:21:52.641Z,102463.16
2022-12-17T20:24:19.526Z,102468.56
2022-12-17T20:26:48.405Z,102460.63
2022-12-17T20:29:16.930Z,102453.53
2022-12-17T20:31:48.022Z,102457.84
2022-12-17T20:34:18.114Z,102459.38
2022-12-17T20:36:44.752Z,102451.09
2022-12-17T20:39:11.752Z,102454.66
2022-12-17T20:41:42.055Z,102466.56
2022-12-17T20:44:13.129Z,102469.13
2022-12-17T20:46:41.144Z,102464.81
2022-12-17T20:49:08.367Z,102473.97
2022-12-17T20:51:35.328Z,102477.50
2022-12-17T20:54:03.002Z,102468.47
2022-12-17T20:56:33.917Z,102468.53
2022-12-17T20:59:02.990Z,102467.22
2022-12-17T21:01:31.566Z,102480.25
2022-12-17T21:03:58.768Z,102491.16
2022-12-17T21:06:46.098Z,102480.25
2022-12-17T21:09:14.036Z,102477.16
2022-12-17T21:11:41.148Z,102477.16
2022-12-17T21:14:11.909Z,102479.47
2022-12-17T21:16:39.578Z,102474.38
2022-12-17T21:19:08.415Z,102480.09
2022-12-17T21:21:37.108Z,102475.81
2022-12-17T21:24:04.372Z,102475.59
2022-12-17T21:26:33.666Z,102481.63
2022-12-17T21:29:01.762Z,102480.00
2022-12-17T21:31:40.710Z,102484.41
2022-12-17T21:34:10.753Z,102492.03
2022-12-17T21:36:37.525Z,102499.66
2022-12-17T21:39:09.367Z,102498.13
2022-12-17T21:41:39.337Z,102503.84
2022-12-17T21:44:13.106Z,102511.88
2022-12-17T21:46:41.355Z,102513.69
2022-12-17T21:49:07.919Z,102517.66
2022-12-17T21:51:34.615Z,102512.13
2022-12-17T21:54:08.785Z,102519.88
2022-12-17T21:56:38.445Z,102528.78
2022-12-17T21:59:04.964Z,102530.22
2022-12-17T22:04:12.555Z,102510.44
2022-12-17T22:06:39.741Z,102517.50
2022-12-17T22:09:29.433Z,102518.28
2022-12-17T22:12:23.280Z,102508.78
2022-12-17T22:14:49.690Z,102519.28
2022-12-17T22:17:16.322Z,102517.28
2022-12-17T22:19:42.946Z,102521.25
2022-12-17T22:22:09.271Z,102517.91
2022-12-17T22:24:36.289Z,102520.13
2022-12-17T22:27:03.165Z,102524.53
2022-12-17T22:29:48.118Z,102526.50
2022-12-17T22:32:33.126Z,102528.03
2022-12-17T22:36:09.240Z,102525.25
2022-12-17T22:41:46.514Z,102515.09
2022-12-17T22:44:33.773Z,102515.97
2022-12-17T22:44:39.381Z,102521.19
2022-12-17T22:46:17.106Z,102525.00
2022-12-17T22:48:43.645Z,102528.97
2022-12-17T22:51:19.499Z,102531.28
2022-12-17T22:53:53.999Z,102532.03
2022-12-17T22:56:33.780Z,102534.81
2022-12-17T22:59:07.393Z,102534.94
2022-12-17T23:01:34.696Z,102529.44
2022-12-17T23:04:02.359Z,102528.44
2022-12-17T23:06:29.045Z,102527.53
2022-12-17T23:08:55.979Z,102534.81
2022-12-17T23:11:24.693Z,102529.28
2022-12-17T23:13:51.940Z,102536.75
2022-12-17T23:16:18.949Z,102530.56
2022-12-17T23:18:46.995Z,102524.84
2022-12-17T23:21:19.630Z,102527.47
2022-12-17T23:23:46.142Z,102522.53
2022-12-17T23:26:34.765Z,102515.81
2022-12-17T23:29:05.007Z,102527.72
2022-12-17T23:31:35.197Z,102523.00
2022-12-17T23:34:01.554Z,102525.19
2022-12-17T23:36:27.904Z,102522.59
2022-12-17T23:38:56.607Z,102525.00
2022-12-17T23:41:25.754Z,102518.91
2022-12-17T23:43:53.306Z,102510.72
2022-12-17T23:46:20.650Z,102503.22
2022-12-17T23:48:47.934Z,102487.72
2022-12-17T23:51:17.075Z,102503.69
2022-12-17T23:53:43.984Z,102510.31
2022-12-17T23:56:19.038Z,102504.94
2022-12-17T23:58:46.373Z,102517.63
